Latest Weather Observations for Gayndah

IDQ60801

Issued at 7:05 am EST Saturday 29 November 2014 (issued every 30 minutes, with the page automatically refreshed every 10 minutes)

About weather observations | Map of weather stations | Latest weather observations for QLD | Other Formats
Station Details ID: 039066 Name: GAYNDAH AIRPORT Lat: -25.62 Lon: 151.62 Height: 110.9 m
Data from the previous 72 hours. | See also: Recent months at Gayndah
Date/Time
EST
Temp
°C
App
Temp
°C
Dew
Point
Rel
Hum
%
Delta-T
°C
Wind Press
QNH
hPa
Press
MSL
hPa
Rain
since 9 am
mm
Dir
 
Spd
km/h
Gust
km/h
Spd
kts
Gust
kts
29/07:00am 23.4 21.6 16.0 63 4.5 E 20 30 11 16 1017.8 1017.3 0.0
29/06:30am 22.8 22.1 16.4 67 3.9 ESE 15 24 8 13 1017.6 1017.0 0.0
29/06:00am 22.1 24.0 16.6 71 3.4 SSE 2 6 1 3 1017.2 1016.6 0.0
29/05:30am 21.1 22.2 16.5 75 2.8 ESE 6 7 3 4 1017.0 1016.4 0.0
29/05:00am 20.5 21.4 16.5 78 2.4 E 7 11 4 6 1016.5 1015.9 0.0
29/04:30am 20.7 21.7 16.3 76 2.7 ESE 6 7 3 4 1016.2 1015.6 0.0
29/04:00am 20.7 21.8 16.5 77 2.5 E 6 9 3 5 1016.2 1015.6 0.0
29/03:30am 20.7 21.8 16.5 77 2.5 ESE 6 9 3 5 1016.3 1015.7 0.0
29/03:00am 21.0 21.4 16.4 75 2.8 ESE 9 13 5 7 1016.2 1015.6 0.0
29/02:30am 21.2 22.0 16.4 74 2.9 ESE 7 13 4 7 1016.5 1015.9 0.0
29/02:00am 21.5 21.7 16.7 74 2.9 ESE 11 15 6 8 1016.4 1015.8 0.0
29/01:30am 21.7 21.2 16.9 74 2.9 ESE 15 20 8 11 1016.5 1015.9 0.0
29/01:00am 21.8 21.8 17.2 75 2.8 E 13 20 7 11 1016.6 1016.0 0.0
29/12:30am 21.9 22.0 17.5 76 2.7 E 13 19 7 10 1016.7 1016.1 0.0
29/12:00am 22.0 22.6 17.6 76 2.7 E 11 15 6 8 1017.4 1016.8 0.0
 
Date/Time
EST
Temp
°C
App
Temp
°C
Dew
Point
Rel
Hum
%
Delta-T
°C
Wind Press
QNH
hPa
Press
MSL
hPa
Rain
since 9 am
mm
Dir
 
Spd
km/h
Gust
km/h
Spd
kts
Gust
kts
28/11:30pm 22.1 22.3 17.7 76 2.7 E 13 20 7 11 1017.4 1016.8 0.0
28/11:00pm 22.2 22.1 17.8 76 2.7 E 15 24 8 13 1017.8 1017.3 0.0
28/10:30pm 22.3 22.0 17.4 74 3.0 E 15 20 8 11 1018.3 1017.8 0.0
28/10:00pm 22.1 22.3 17.7 76 2.7 E 13 19 7 10 1018.2 1017.7 0.0
28/09:30pm 22.2 22.4 17.6 75 2.9 ESE 13 19 7 10 1018.5 1018.0 0.0
28/09:00pm 22.3 22.9 17.7 75 2.9 ESE 11 15 6 8 1018.0 1017.5 0.0
28/08:30pm 22.6 22.4 17.5 73 3.2 E 15 22 8 12 1017.4 1016.8 0.0
28/08:00pm 22.8 21.7 17.3 71 3.4 E 19 28 10 15 1017.3 1016.7 0.0
28/07:30pm 23.4 21.5 17.6 70 3.6 E 24 33 13 18 1016.8 1016.2 0.0
28/07:00pm 24.1 22.0 17.1 65 4.3 E 24 35 13 19 1016.7 1016.1 0.0
28/06:30pm 25.1 23.4 17.1 61 5.0 E 22 32 12 17 1016.2 1015.6 0.0
28/06:00pm 25.7 24.0 17.1 59 5.4 E 22 33 12 18 1015.6 1015.0 0.0
28/05:30pm 26.8 24.4 16.4 53 6.4 E 24 33 13 18 1015.2 1014.6 0.0
28/05:00pm 27.0 24.3 16.6 53 6.5 E 26 37 14 20 1015.1 1014.5 0.0
28/04:30pm 27.6 25.5 17.2 53 6.5 E 24 41 13 22 1014.6 1014.0 0.0
28/04:00pm 28.8 26.0 16.4 47 7.7 E 26 37 14 20 1014.1 1013.6 0.0
28/03:30pm 30.5 28.5 16.5 43 8.8 E 22 30 12 16 1014.4 1013.8 0.0
28/03:00pm 29.8 28.2 16.6 45 8.3 E 20 30 11 16 1014.6 1014.0 0.0
28/02:30pm 30.1 28.7 16.5 44 8.5 E 19 33 10 18 1014.8 1014.2 0.0
28/02:00pm 30.4 29.5 16.8 44 8.6 E 17 35 9 19 1015.0 1014.4 0.0
28/01:30pm 30.5 29.3 17.6 46 8.2 ESE 20 30 11 16 1015.2 1014.6 0.0
28/01:00pm 30.1 29.1 17.5 46 8.0 ESE 19 28 10 15 1015.4 1014.8 0.0
28/12:30pm 30.4 29.2 17.5 46 8.2 E 20 30 11 16 1015.5 1014.9 0.0
28/12:00pm 29.2 28.5 17.4 49 7.5 ESE 17 26 9 14 1015.7 1015.1 0.0
28/11:30am 28.9 27.5 16.5 47 7.8 E 19 35 10 19 1016.5 1015.9 0.0
28/11:00am 27.8 27.2 18.5 57 6.0 ESE 19 26 10 14 1017.0 1016.4 0.0
28/10:30am 27.5 28.2 18.8 59 5.6 E 13 20 7 11 1017.1 1016.5 0.0
28/10:00am 26.1 26.1 18.2 61 5.0 ENE 15 20 8 11 1017.4 1016.8 0.0
28/09:30am 26.1 26.7 18.5 63 4.9 E 13 22 7 12 1017.6 1017.0 0.0
28/09:00am 25.3 25.6 18.7 67 4.2 E 15 24 8 13 1017.6 1017.0 17.2
28/08:30am 24.1 25.2 19.6 76 2.9 E 13 19 7 10 1017.8 1017.3 17.2
28/08:00am 22.9 26.0 20.2 85 1.7 ESE 4 6 2 3 1017.9 1017.4 17.2
28/07:30am 21.4 23.9 19.9 91 1.0 SSE 6 15 3 8 1018.0 1017.5 16.8
28/07:00am 22.9 26.1 19.7 82 2.1 ESE 2 4 1 2 1017.7 1017.2 15.8
28/06:30am 22.7 25.4 19.5 82 2.1 SSE 4 6 2 3 1017.2 1016.6 15.8
28/06:00am 21.8 24.8 20.1 90 1.1 SSE 4 6 2 3 1016.8 1016.2 15.8
28/05:30am 21.2 24.4 19.7 91 1.0 SE 2 4 1 2 1016.5 1015.9 15.8
28/05:00am 21.4 23.6 19.5 89 1.2 ENE 7 9 4 5 1016.1 1015.5 15.8
28/04:30am 21.5 23.6 19.4 88 1.3 ENE 7 9 4 5 1015.8 1015.2 15.8
28/04:00am 21.6 23.8 19.5 88 1.3 E 7 9 4 5 1015.4 1014.8 15.8
28/03:30am 21.6 23.5 19.7 89 1.2 E 9 11 5 6 1015.0 1014.4 15.8
28/03:00am 21.4 24.2 19.7 90 1.1 ENE 4 6 2 3 1015.0 1014.4 15.8
28/02:30am 21.6 23.9 19.5 88 1.3 NE 6 7 3 4 1015.0 1014.4 15.8
28/02:00am 21.8 24.1 19.5 87 1.5 E 6 6 3 3 1015.3 1014.7 15.8
28/01:30am 21.6 23.8 19.3 87 1.5 ENE 6 7 3 4 1015.4 1014.8 15.8
28/01:00am 21.5 23.8 19.4 88 1.3 E 6 7 3 4 1015.5 1014.9 15.8
28/12:30am 21.9 23.1 19.1 84 1.8 ENE 11 15 6 8 1015.5 1014.9 15.8
28/12:00am 22.3 22.3 19.7 85 1.7 NE 19 22 10 12 1015.3 1014.7 15.8
 
Date/Time
EST
Temp
°C
App
Temp
°C
Dew
Point
Rel
Hum
%
Delta-T
°C
Wind Press
QNH
hPa
Press
MSL
hPa
Rain
since 9 am
mm
Dir
 
Spd
km/h
Gust
km/h
Spd
kts
Gust
kts
27/11:30pm 22.1 24.4 21.3 95 0.5 NE 11 13 6 7 1015.5 1014.9 15.6
27/11:00pm 21.4 24.3 20.6 95 0.5 ENE 6 9 3 5 1016.0 1015.4 15.2
27/10:30pm 21.4 22.7 20.2 93 0.8 ENE 13 19 7 10 1016.4 1015.8 14.6
27/10:19pm 20.4 20.0 18.9 91 0.9 E 19 26 10 14 1016.4 1015.8 12.4
27/10:17pm 20.1 15.0 18.6 91 0.9 ESE 43 67 23 36 1016.9 1016.3 11.4
27/10:16pm 20.1 13.6 18.4 90 1.1 ESE 50 67 27 36 1016.8 1016.2 9.8
27/10:14pm 20.3 17.4 17.1 82 2.0 SSE 28 50 15 27 1016.7 1016.1 7.0
27/10:00pm 23.0 21.8 18.3 75 3.0 SSE 22 33 12 18 1017.1 1016.5 6.0
27/09:30pm 23.0 25.0 20.7 87 1.5 ESE 11 17 6 9 1016.2 1015.6 6.0
27/09:00pm 22.3 25.1 19.7 85 1.7 ESE 4 6 2 3 1015.4 1014.8 6.0
27/08:30pm 22.2 22.9 18.8 81 2.2 ENE 13 22 7 12 1015.2 1014.6 6.0
27/08:00pm 22.4 22.6 19.4 83 1.9 NE 17 26 9 14 1015.0 1014.4 4.0
27/07:30pm 27.4 24.9 18.1 57 5.9 NE 28 43 15 23 1014.4 1013.8 0.0
27/07:00pm 28.5 27.6 17.7 52 6.9 NE 19 32 10 17 1013.3 1012.8 0.0
27/06:30pm 29.3 27.8 17.8 50 7.3 NE 22 30 12 16 1012.7 1012.2 0.0
27/06:00pm 31.3 29.2 16.1 40 9.5 NE 22 30 12 16 1011.7 1011.2 0.0
27/05:30pm 33.3 31.0 12.9 29 12.3 NE 17 24 9 13 1011.1 1010.6 0.0
27/05:00pm 33.6 33.2 13.1 29 12.4 N 7 13 4 7 1010.6 1010.1 0.0
27/04:30pm 34.0 33.6 12.9 28 12.7 NNE 7 13 4 7 1010.6 1010.1 0.0
27/04:00pm 34.0 32.8 12.9 28 12.8 E 11 15 6 8 1010.7 1010.2 0.0
27/03:30pm 34.2 33.3 12.5 27 13.0 ENE 9 15 5 8 1011.0 1010.5 0.0
27/03:00pm 33.0 31.6 12.1 28 12.4 E 11 19 6 10 1011.5 1011.0 0.0
27/02:30pm 34.1 33.9 13.0 28 12.8 S 6 19 3 10 1011.8 1011.3 0.0
27/02:00pm 35.0 34.5 13.8 28 13.0 ESE 9 17 5 9 1012.3 1011.8 0.0
27/01:30pm 33.9 33.4 13.9 30 12.3 ESE 9 19 5 10 1012.5 1012.0 0.0
27/01:00pm 32.6 31.9 13.3 31 11.7 SW 9 20 5 11 1013.0 1012.5 0.0
27/12:30pm 32.9 32.5 14.0 32 11.6 ESE 9 20 5 11 1013.5 1013.0 0.0
27/12:00pm 31.9 31.9 13.6 32 11.1 SE 6 11 3 6 1014.0 1013.5 0.0
27/11:30am 30.1 30.0 13.4 36 10.0 NNE 6 9 3 5 1014.7 1014.1 0.0
27/11:00am 30.4 29.3 13.2 35 10.3 NNW 11 19 6 10 1015.2 1014.6 0.0
27/10:30am 30.6 31.2 14.3 37 9.9 NW 4 9 2 5 1015.6 1015.0 0.0
27/10:00am 29.1 29.5 15.2 42 8.5 N 7 15 4 8 1016.1 1015.5 0.0
27/09:30am 28.0 29.0 16.3 49 7.3 NNE 6 11 3 6 1016.2 1015.6 0.0
27/09:00am 28.1 29.7 17.9 54 6.5 NNE 6 13 3 7 1016.4 1015.8 0.0
27/08:30am 26.5 27.8 18.4 61 5.2 NNE 9 15 5 8 1016.5 1015.9 0.0
27/08:00am 25.9 28.1 19.1 66 4.4 ENE 6 11 3 6 1016.9 1016.3 0.0
27/07:30am 25.5 27.8 19.9 71 3.6 NE 7 13 4 7 1016.9 1016.3 0.0
27/07:00am 24.4 26.6 19.5 74 3.2 E 7 9 4 5 1016.7 1016.1 0.0
27/06:30am 24.0 26.3 19.5 76 2.9 E 6 9 3 5 1016.4 1015.8 0.0
27/06:00am 23.3 25.9 19.2 78 2.6 ESE 4 7 2 4 1016.3 1015.7 0.0
27/05:30am 22.6 25.9 19.0 80 2.3 CALM 0 0 0 0 1015.7 1015.1 0.0
27/05:00am 22.2 25.0 18.8 81 2.2 ESE 2 6 1 3 1015.5 1014.9 0.0
27/04:30am 22.3 24.1 18.7 80 2.3 NE 7 9 4 5 1015.0 1014.4 0.0
27/04:00am 22.7 25.9 18.9 79 2.4 CALM 0 0 0 0 1015.1 1014.5 0.0
27/03:30am 22.4 25.2 18.8 80 2.3 ESE 2 6 1 3 1015.0 1014.4 0.0
27/03:00am 22.6 24.5 18.6 78 2.5 ENE 6 6 3 3 1014.7 1014.1 0.0
27/02:30am 22.8 25.2 18.8 78 2.5 NE 4 6 2 3 1014.9 1014.3 0.0
27/02:00am 23.0 25.0 18.7 77 2.7 NE 6 7 3 4 1015.0 1014.4 0.0
27/01:30am 23.4 24.9 18.9 76 2.9 NNE 9 13 5 7 1015.3 1014.7 0.0
27/01:00am 23.6 25.1 18.9 75 3.0 NE 9 13 5 7 1015.6 1015.0 0.0
27/12:30am 23.8 25.3 18.9 74 3.1 NE 9 13 5 7 1015.8 1015.2 0.0
27/12:00am 24.0 25.5 18.9 73 3.3 NNE 9 15 5 8 1016.1 1015.5 0.0
 
Date/Time
EST
Temp
°C
App
Temp
°C
Dew
Point
Rel
Hum
%
Delta-T
°C
Wind Press
QNH
hPa
Press
MSL
hPa
Rain
since 9 am
mm
Dir
 
Spd
km/h
Gust
km/h
Spd
kts
Gust
kts
26/11:30pm 24.1 25.8 18.5 71 3.6 N 7 13 4 7 1016.4 1015.8 0.0
26/11:00pm 24.0 25.3 18.4 71 3.5 NE 9 13 5 7 1016.9 1016.3 0.0
26/10:30pm 24.3 24.7 18.2 68 3.9 NE 13 17 7 9 1017.0 1016.4 0.0
26/10:00pm 24.5 24.5 18.0 67 4.1 NE 15 19 8 10 1016.8 1016.2 0.0
26/09:30pm 25.0 23.9 17.7 64 4.6 NE 20 28 11 15 1017.1 1016.5 0.0
26/09:00pm 25.4 24.1 16.8 59 5.3 NE 19 24 10 13 1016.6 1016.0 0.0
26/08:30pm 25.9 24.4 16.7 57 5.7 NE 20 30 11 16 1016.3 1015.7 0.0
26/08:00pm 26.3 24.8 16.8 56 5.9 NE 20 28 11 15 1016.0 1015.4 0.0
26/07:30pm 26.9 25.4 16.8 54 6.3 NE 20 30 11 16 1015.4 1014.8 0.0
26/07:00pm 27.5 26.1 16.5 51 6.8 NE 19 28 10 15 1015.0 1014.4 0.0
26/06:30pm 28.3 25.3 15.9 47 7.7 NE 26 39 14 21 1014.1 1013.6 0.0
26/06:00pm 29.6 26.2 15.7 43 8.6 NE 28 35 15 19 1013.6 1013.1 0.0
26/05:30pm 31.2 29.1 14.8 37 10.1 NE 19 28 10 15 1013.0 1012.5 0.0
26/05:00pm 31.8 30.0 14.4 34 10.7 NNE 17 28 9 15 1012.7 1012.2 0.0
26/04:30pm 32.4 30.3 13.6 32 11.4 NNE 17 24 9 13 1012.5 1012.0 0.0
26/04:00pm 33.2 30.8 12.8 29 12.3 NE 17 24 9 13 1012.1 1011.6 0.0
26/03:30pm 33.5 31.8 13.5 29 12.2 NE 15 28 8 15 1012.1 1011.6 0.0
26/03:00pm 32.9 30.6 13.0 30 12.0 ENE 17 28 9 15 1012.2 1011.7 0.0
26/02:30pm 33.1 32.2 13.7 31 11.8 NNE 11 19 6 10 1012.5 1012.0 0.0
26/02:00pm 32.9 31.4 13.0 30 12.0 NNE 13 20 7 11 1012.8 1012.3 0.0
26/01:30pm 32.8 30.4 13.9 31 11.5 NE 19 30 10 16 1013.1 1012.6 0.0
26/01:00pm 32.1 31.1 13.3 31 11.3 N 11 19 6 10 1013.6 1013.1 0.0
26/12:30pm 33.2 31.5 14.8 33 11.4 NNE 17 28 9 15 1014.1 1013.6 0.0
26/12:00pm 31.7 30.9 15.2 36 10.2 N 13 24 7 13 1014.7 1014.1 0.0
26/11:30am 31.1 30.5 14.7 37 10.1 NNE 11 24 6 13 1015.0 1014.4 0.0
26/11:00am 31.4 30.2 15.0 37 10.1 NNE 15 26 8 14 1015.4 1014.8 0.0
26/10:30am 29.5 29.3 15.6 43 8.6 NNE 11 19 6 10 1015.8 1015.2 0.0
26/10:00am 30.0 28.4 16.1 43 8.7 NE 19 28 10 15 1015.8 1015.2 0.0
26/09:30am 29.9 29.5 18.0 48 7.6 NNE 17 24 9 13 1016.1 1015.5 0.0
26/09:00am 27.8 27.2 17.6 53 6.5 NNE 17 26 9 14 1016.2 1015.6 0.0
26/08:30am 28.0 28.1 19.2 58 5.7 NNE 17 24 9 13 1016.0 1015.4 0.0
26/08:00am 26.8 26.6 18.4 60 5.4 NE 17 26 9 14 1016.3 1015.7 0.0
26/07:30am 27.1 26.7 18.9 61 5.3 NE 19 28 10 15 1016.6 1016.0 0.0

Other Formats:

Comma delimited format used in spreadsheet applications
http://www.bom.gov.au/fwo/IDQ60801/IDQ60801.95543.axf

JavaScript Object Notation format (JSON) in row-major order
http://www.bom.gov.au/fwo/IDQ60801/IDQ60801.95543.json